Member area
Imprimable
Maredsous, 22/12/2017, BEL - Maredsous Christmas Night Trail
List of reports > 30km - Result
Search: Page: [1]
239 Entries
 
Complains are not accepted anymore. Results are final.
Category
PosNrNameAgeNATTeamTimeTkmMoy.PlaceNameCity
1.47043ROUCHET Francois29BEL2:21:184:43 12.741seh
2.307BROSSARD EricBEL2:21:484:44 12.701xxx
3.219PASQUE Fabrice41BELTEAM TRAKKS2:22:254:45 12.641v1hCOUILLET
4.40GENTGEN Mael30BELBERSILLIE L ABB2:23:294:47 12.552sehBERSILLIES L ABBAYE
5.47048MOUCHET Stephane432:25:064:51 12.412v1h
6.189MAHIEUX Johan39FRAJOHAN MAHIEUX2:27:104:55 12.233sehCHOCQUES
7.247ROBERT Yves47BELLES FRELONS LEG2:29:144:59 12.063v1hAMAY
8.265THEUNYNCK Lode41BELTRAILODGE2:30:415:02 11.954v1hSINT-DENIJS-WESTREM
9.199MAYETTE Jonathann39FRA2:31:215:03 11.894sehVILLE SUR LUMES
10.111DUPON Gilles25BELIRONMANAGERS2:31:285:03 11.885sehSINT-KRUIS
11.186LONCARD Freddy45BELMJSPORT2:31:455:04 11.865v1hHERMALLE SOUS HUY
12.297WAUTIER Benoit47BEL2:32:155:05 11.826v1hPERWEZ
13.239RADELET Stephen29BELHUY /MJSPORT2:32:575:06 11.776sehBEN-AHIN
14.278VANDERBECQ Pierre Henri41BELCABW /NAC2:34:025:09 11.697v1hECAUSSINNES
15.11BALESTRIE Ben35BELJCPMF@GNAP2:35:325:12 11.577seh1470
16.264TENAERTS Antoine27BELDECATHLON TRAIL2:35:375:12 11.578sehFORGE-PHILIPPE
17.20BERNARD Christophe40BELFONDATION BERNA2:37:125:15 11.458v1hSCHAERBEEK
18.256CHAUSSIER Gregory37CHE2:37:515:16 11.409sehCOURFAIVRE
19.279VANDERCAM Nicolas34BEL2:38:085:17 11.3810sehLASNE
20.277VANDERBECQ Hugues41BELVANDERBECQ2:38:255:17 11.369v1hECAUSSINNES
21.16BEKAERT Julien27BEL2:38:355:18 11.3511sehBRAINE-L'ALLEUR
22.234PRATTE Philippe31BELACTE2:38:365:18 11.3512sehHAUTRAGE
23.37BOURNONVILLE Ruddy43BELSMAC CAPTRAIL2:40:325:22 11.2110v1hBOIS-DE-VILLERS
24.51CHEVALIER Fabian35BELLES MOTIVÉS DE 2:41:405:24 11.1413sehBIOUL
25.230POCHET Baptiste26BELBIOTRAIL2:41:595:24 11.1114sehFALISOLLE
26.46CASTILLE Guy41FRAJOGGING CLUB LA2:45:045:31 10.9111v1hPERNES
27.208MOREELS Guillaume34BELDENALI OUTDOOR 2:46:155:33 10.8315sehTEMPLOUX
28.271TIMMERMANS Philippe42BEL2:46:325:34 10.8112v1hEVERBEEK
29.170LAMBOTTE William18BEL2:47:125:35 10.771eshPROFONDEVILLE
30.151JACQUES Frédéric42BELTRAIL BERTRIX2:47:145:35 10.7613v1hLIBRAMONT
31.79DEGRAEVE Jérémie32FRAK-RAID ARDENNES2:47:235:35 10.7516sehNOUZONVILLE
32.244FRENARD Alexandrine32FRARAND'O'RUN2:47:445:36 10.731sefAUDERGHEM
33.292VERHEYEN Cédric39BELSBT2:47:445:36 10.7317sehBEERSEL
34.298WIART Yves50BELYVES WIART2:49:195:39 10.631v2hDURNAL
35.118FAUQUENOY Sylvain33FRABIOTRAIL RUNNIN2:50:165:41 10.5718sehFOSSES-LA-VILLE
36.304ZIETEK Kevin29FRA2:51:215:43 10.5119sehIZEL LES HAMEAUX
37.267THOMAS Damien40BELBIOTRAIL2:52:415:46 10.4214v1hBUZET
38.272TOURNAY Martin33BELATCC2:53:145:47 10.3920sehGOUY-LEZ-PIÉTON
39.57COLOMB Jean-Baptiste36FRAFONDATION BERNA2:53:215:47 10.3821sehAUDERGHEM
40.47053ANDRIES Nicolas40BEL2:53:295:47 10.3815v1h
41.47054LEBRUN Benoit422:53:305:47 10.3816v1h
42.233PONCELET Antoine27BEL2:54:435:50 10.3022sehJAMBES
43.274TRIQUET Paul32FRA2:55:235:51 10.2623sehDOUAI
44.138HANSEN Nicolas26BEL2:55:345:52 10.2524sehAYE
45.221PEDEMONTE Rafael32BELGENT RUNNING TE2:56:555:54 10.1825sehGAND
46.22BERREWAERTS Guillaume28BELGUILLAUME BERRE2:57:005:54 10.1726sehBEAUFAYS
47.185LINDEKENS Andre46BELTEAM TOPOATHLET2:58:225:57 10.0917v1hMAISON ST GERARD
48.52FCHRÉTIEN Sophie27BEL2:59:065:59 10.052sefPONT-À-CELLES
49.59COLOT Etienne44BEL2:59:165:59 10.0418v1hERMETON/ BIERT
50.80DELAHAYE Benoît28BELLES BEAUF'S2:59:205:59 10.0427sehBRUXELLES
51.306STEVENS Alain2:59:336:00 10.032xxx
52.195MARGERIN Vincent29FRAVILLENEUVE D'AS2:59:586:00 10.0028sehCYSOING
53.96DEWAEL Yannick41BELBETRAIL3:00:136:01 9.9919v1hWALHAIN
54.44BUTTIENS Steve34BEL3:01:566:04 9.8929sehOTTENBURG
55.172LEBAILLY Matthieu38BEL3:02:246:05 9.8730sehPERWEZ
56.53CLAES Dieter29BELDOLLE TIETEN3:02:276:05 9.8731sehOPWIJK
57.249ROMNÉE Ambroise32BELSMAC / CAPTRAIL3:02:316:06 9.8632sehNAMUR
58.68DA SOIS Manuel36ITA3:03:226:07 9.8233sehLIEGE
59.83DELRIVIERE Hubert30BEL3:03:496:08 9.7934sehATH
60.62COURTOY Nicolas31BEL3:03:596:08 9.7835sehLIÈGE
61.210MOUCHART Aurélien28FRAJOGGING ATHLETI3:04:406:10 9.7536sehFRETIN
62.226PIERRE Frédéric45BEL3:04:486:10 9.7420v1hRAMILLIES
63.116EWBANK Patrick38BELJCPMF@GNAP3:05:116:11 9.7237sehBAISY-THY
64.179LEFER Vincent38BELTERREX TEAM3:06:006:12 9.6838sehVITRIVAL
65.291VEREECKE Peter45BELSURVIVAL MEETJE3:06:226:13 9.6621v1hWAARSCHOOT
66.225PIAT Fabrice32FRA3:07:186:15 9.6139sehLUSTIN
67.160MANCHE David44BEL3:08:036:17 9.5722v1hCOURFAIVRE
68.143HERMANS Thomas41BELLES CHAPELIERS 3:08:276:17 9.5523v1hLE ROEULX
69.136HALLET Pierre35BELPIERRE HALLET3:08:416:18 9.5440sehNANDRIN
70.94DESMET Christopher37BELMANITAS DE LA B3:10:496:22 9.4341sehWIERS
71.77DEFOY Charles35BEL3:11:026:23 9.4242sehSOMME-LEUZE
72.254SERVAIS Johan41BELFOULÉES DU PLAI3:12:076:25 9.3724v1hHUY
73.133GRUSLIN Jules45BELGRUSLIN3:12:076:25 9.3725v1hHUY
74.47049DELVAL Tanguy23BEL3:12:136:25 9.3643seh
75.72DEBORTOLI Nicolas28BELXV DU LOUP3:13:336:28 9.3044sehNAMUR
76.283VAN DE WOESTYNE Freddy27FRALES EMPAUCERS3:14:096:29 9.2745sehSTENAY
77.159JOTTARD Christophe42BELP83:14:216:29 9.2626v1h0CQUIER
78.162KRAUCH Bruno38BELRUNNING CONCEPT3:14:456:30 9.2446sehFLORENVILLE
79.66DAGNEAUX Christophe35BELNCFYC3:16:076:33 9.1847sehNALINNES
80.91DEOM Quentin33BEL3:16:266:33 9.1648sehLIBRAMONT
81.117FARBER Nicolad47BEL3:17:316:36 9.1127v1hLASNE
82.4AELTERMAN Vincent39BELRUNNERS MAARKED3:19:346:40 9.0249sehMAARKEDAL
83.130GOOSSENS Xavier29BEL3:20:106:41 8.9950sehWAYS
84.71DE BOECK Yannick34BEL3:20:126:41 8.9951sehPUURS
85.33BOUCQUÉAU Olivier27BELKIRGHIZ3:20:246:41 8.9852sehFLAWINNE
86.19BERGER M51BELJCPMF GENAPPE3:20:286:41 8.982v2hVIEUX-GENAPPE
87.287VAN NUFFELEN Julien39BELLES CASTORS3:20:536:42 8.9653sehPONT-DE-LOUP
88.29FBODART Alicia23BEL3:21:096:43 8.953sefLIÈGE
89.182LENAERTS Thibault28BELJOGGING PLUS3:22:106:45 8.9054sehLA HULPE
90.8FANTHEUNIS Sandrine31BEL3:22:306:45 8.894sefNANINNE
91.261STAPELLE Eric54BELSMAC - CAPTRAIL3:22:516:46 8.873v2hBOIS-DE-VILLERS
92.85DELVIGNE Julien32BELTEMPLEUVE3:22:526:46 8.8755sehTEMPLEUVE
93.235FPREVOST Marie-Cecile37BELTEMPLEUVE3:22:526:46 8.875sefTEMPLEUVE
94.213NEMPONT Francois35FRA3:22:586:46 8.8756sehSÉVISCOURT
95.99DEWEZ Geoffroy38BELTEAM ANNA3:23:046:47 8.8657sehWOLUWE-SAINT-PIERRE
96.204MINNE Patrice49BELJCPMFGENAPPE3:23:196:47 8.8528v1hGLABAIS
97.227PILATTE Nicolas23BELETH ZÜRICH3:23:326:48 8.8458sehZÜRICH
98.290VANSTALLE Hans36BELBIR3:23:496:48 8.8359sehBRECHT
99.193MAQUET Jean-Charles31BELBATIFER TRIATHL3:23:566:48 8.8360sehLIBRAMONT-CHEVIGNY
100.140HEMMER Eric32BELTTC3:23:576:48 8.8361sehVIRTON
101.73DEBROUX Jacques57BELLES MOTIVES DE 3:24:106:49 8.824v2hFLAVION
102.207MONART Jean-Michel39BEL3:24:426:50 8.7962sehBASTOGNE
103.74DEBUS Julien27BELLA CÔTE D'OR3:25:226:51 8.7663sehWARET L'ÉVÊQUE
104.30BORBOUSE John47BELCAPTRAIL SMAC3:27:086:55 8.6929v1hBOIS-DE-VILLERS
105.187LOUTRE Bruno32BEL3:27:126:55 8.6964sehBRUXELLES
106.26BLOCKERYE Alain48BEL3:27:286:55 8.6830v1hCHARLEROI
107.150JACQMIN Nathanaël52BELSKY RUNNER3:27:546:56 8.665v2hMALONNE
108.119FICKERS Frederic46BEL3:27:576:56 8.6631v1hMALMEDY
109.123FOSSION Charlton34BEL3:28:116:57 8.6565sehPHILIPPEVILLE
110.260SOUTMANS Thibaut27BELTNT/XVDULOUP3:28:306:57 8.6366sehNAMUR
111.155JAVAUX Max40BELQ3T3:28:316:58 8.6332v1hWAGNELÉE
112.167LALOYAUX Dorian29BEL3:29:166:59 8.6067sehERQUELINNES
113.190MAIRESSE Pierre36BELLES BEAUF'S3:29:196:59 8.6068sehNAMUR
114.104DIEFFENBACH Martial42FRADIEFFENBACH3:30:247:01 8.5633v1hMARCK
115.92DEREMETZ Patrice48FRAPATRICE DEREMET3:30:427:02 8.5434v1hMOUZAY
116.3ADRIAENS Bernard46BEL3:31:107:03 8.5235v1hWOLUWE-SAINT-LAMBERT
117.288VAN ROMPAYE Erik46BELERIK3:31:147:03 8.5236v1hEDEGEM
118.293VERSTICHEL Alain55BEL3:31:147:03 8.526v2hTHUIN
119.305DAUMILLARE Olivier39BEL3:31:517:04 8.5069sehGEMBLOUX
120.258FSNICKERS Marion28BEL3:32:167:05 8.486sefBRUXELLES
121.10BAIANA Gianni44ITALES P'TITS SPRI3:34:067:09 8.4137v1hBIESME
122.229PIRLOT Joffroy34BELLA VELAINOISE3:34:287:09 8.3970sehHASSELT
123.169LAMBERT Serge Jgh52BEL3:34:287:09 8.397v2hLIBRAMONT-CHEVIGNY
124.110DUMONT Jérôme30BELROYAL LA LOUVIÈ3:34:417:10 8.3871sehSOIGNISE
125.294WARNANT Alexandre35BELLE 50.70 TRAIL3:34:527:10 8.3872sehAISEMONT
126.63COUVREUR Jean-Michel44BELJOGGANS3:35:287:11 8.3538v1hJETTE
127.216OZTURK Emre33BEL3:35:417:12 8.3573sehVILVORDE
128.284VAN DYK Damien42BELTEMPLEUVE3:35:447:12 8.3439v1hBLANDAIN
129.31BORCEUX Jerry28FRACH’TRIO3:36:387:14 8.3174sehFELLERIES
130.198MAYERES Nicolas35BEL3:37:007:14 8.3075sehCLAVIER
131.245FRITAINE Claire30FRA3:37:377:16 8.277sefSAINT DE VÉDAS
132.1854METSCHIES Julien27BEL3:37:377:16 8.2776sehMONCEAU SUR SAMBRE
133.200MEISTER Clément26FRA3:37:397:16 8.2777sehDUNKERQUE
134.134GUÉRIN Jean-Christophe44BEL3:37:567:16 8.2640v1hTOURNAI
135.106DUFRESNOY Christophe33BEL3:37:567:16 8.2678sehFUMAL
136.163FLACROIX Marie36BEL3:37:567:16 8.268sefRONGY
137.58COLOT Bjorn37BEL3:38:057:17 8.2579sehANHÉE
138.173LEBRUN Emmanuel49BELMDG TRAIL TEAM 3:38:267:17 8.2441v1hARBRE
139.24BIGONVILLE François24BELFRANÇOIS BIGONV3:39:417:20 8.1980sehLIBRAMONT
140.34BOUHON Didier48BEL3:40:517:22 8.1542v1hMALMEDY
141.161KLEMM Stéphane41BEL3:41:397:24 8.1243v1hBRAINE L'ALLEUD
142.9BADO Mathieu34BELRC NAMUR3:42:057:25 8.1181sehLES ISNES
143.114EVRARD Didier52BELCAPTRAIL3:42:267:25 8.098v2hBOIS DE VILLERS
144.101DEXTERS Jonathan34BEL3:42:277:25 8.0982sehGENTINNES
145.147HUYGEBAERT Hugo50BELRACING GENT BLA3:42:397:26 8.089v2hAALTER
146.49CHALET Remy29BEL3:43:487:28 8.0483sehPONDROME
147.281VANDER STRICHT Loïc29BEL3:44:167:29 8.0384sehLOUVAIN-LA-NEUVE
148.282VANDER STRICHT Quentin22BEL3:44:167:29 8.0385sehLOUVAIN-LA-NEUVE
149.124GARIN Yves47BELJCPMF GENAPPE3:44:307:29 8.0244v1hHOUTAIN LE VAL
150.109DUJARDIN Jean-Michel48BEL3:44:307:29 8.0245v1hMARBAIS
151.38BOUVERET Nicolas35BEL3:46:437:34 7.9486sehLUXEMBOURG
152.250ROSILLON Dominique60BELARCH3:46:507:34 7.941v3hSORÉE
153.98DEWEZ Gauthier31BELBISOUS FIO!3:47:187:35 7.9287sehWOLUWÉ ST-LAMBERT
154.60FCOULONVAUX Sophie41BELJCPMFGENAPPE3:47:277:35 7.911v1fGLABAIS
155.17BELIN Antoine32BELJCPMF GENAPPE3:47:297:35 7.9188sehVIEUX-GENAPPE
156.184ESSER ThibaultBEL3:47:377:36 7.913xxxMARBAX
157.194MARA Dominique49FRACH’TRIO3:47:377:36 7.9146v1hTRÉLON
158.240FRADERMECKER Michel36BELPOWERMAXX3:48:497:38 7.879sefASSENOIS
159.255SEVRIN Fabrice46BELRUNNING FERNELM3:49:227:39 7.8547v1hPONTILLAS
160.23BERSINI Louis27BEL3:50:337:42 7.8189sehIXELLES
161.224PEIJMANS David42BELGAG GROUPE ATHL3:50:417:42 7.8048v1hGRAND-LEEZ
162.121FFLAMÉ Laurence33BELJAMES3:50:427:42 7.8010sefCORBAIS
163.205MIRGAUX Raphael41BELJAMES3:50:427:42 7.8049v1hHAUT LE WASTIA
164.132FGROSJEAN Astrid46BELJAMES3:50:437:42 7.802v1fLASNE
165.154JAUMAIN Bernard47BELJAMES3:50:437:42 7.8050v1hGENTINNES
166.39BRAMS Hugues51BELJAMES3:50:437:42 7.8010v2hOTTIGNIES
167.285VANHEULE Nicolas40BELJAMES3:50:437:42 7.8051v1hGENVAL
168.174LECOCQ Quentin29BEL3:50:597:42 7.7990sehBRAINE-L'ALLEUD
169.139HANUT Arnaud36BEL3:51:147:43 7.7891sehACOZ
170.146HUWAERT Yves41BEL3:51:167:43 7.7852v1hNEUFVILLES
171.144HOCQ Bernard54BELJCPMF@GNAP3:51:177:43 7.7811v2hLOUPOIGNE
172.47044HANSEN Jean-Marie59BEL3:52:277:45 7.7412v2h
173.251SAELMACKERS Michel60BELLES MOTIVÉS DE 3:52:497:46 7.732v3hBIESME
174.64CRETELEINE Roland56BELLES MOTIVÉS DE 3:52:497:46 7.7313v2hMETTET
175.165LAFFINEUR Amaury27BELSMAC CAPTRAIL3:55:337:52 7.6492sehMEUX
176.175LECOMTE Nicolas43BELJOGGING ET NATU3:56:207:53 7.6253v1hLE ROUX
177.13BARBIER Frédéric43BEL3:56:207:53 7.6254v1hBIESME
178.201MEUNIER Laurent41FRA3:56:217:53 7.6255v1hFERRIÈRE LA GRANDE
179.42BURNY Jonathan36BELZATAC CHARLEROI3:56:237:53 7.6193sehANDENNE
180.142FHERMAN Joanna33BELLES MOTIVÉS DE 3:56:247:53 7.6111sefFLAVION
181.76DECOUX Arnaud35BELTEAM SAN MAZUIN3:56:267:53 7.6194sehPHILIPPEVILLE
182.286VAN KEMMEL Stan27FRA3:56:297:53 7.6195sehLOOS
183.90DÉOM Guillaume23BELAUCUN3:58:257:57 7.5596sehNEUVILLERS
184.21BERNAUX Sébastien36FRA4:00:368:02 7.4897sehWATTIGNIES LA VICTOIRE
185.238QUINTIN Alexandre33BEL4:00:398:02 7.4898sehLEUZE
186.280VAN DER LINDEN Paul68BELRCN4:01:408:04 7.453v3hMALONNE
187.75DECELLE Olivier46BELMDG TRAIL TEAM 4:02:008:04 7.4456v1hWÉPION
188.275URBAIN Jerome36BEL4:02:228:05 7.4399sehBINCHE
189.48CERTAT Fred44FRA4:02:308:05 7.4257v1hRECOGNE
190.86DEMINNE Frédéric32BELJCPMF@GNAP4:03:068:07 7.40100sehGENAPPE
191.203MINE Fabrice44BELFABRICE MINE4:03:308:07 7.3958v1hANHÉE
192.36FBOUREZ Sophie34BELJCPMFGENAPPE4:04:298:09 7.3612sefGENAPPE
193.56CLOSSET Olivier44BELDELRIVIÈRE TEAM4:05:388:12 7.3359v1hWÉPION
194.211MULLER Paul42BEL4:06:378:14 7.3060v1hBRUXELLES
195.310LEMAINE Dominique554:06:408:14 7.3014v2h
196.129GOMEZ Jean-Michel49FRA4:06:478:14 7.2961v1hGENAPPE
197.248FROELANDT Alexandra27BELJCPMF4:08:428:18 7.2413sefBOUSVAL
198.120FISICARO Jérôme35BELUAC4:09:008:18 7.23101sehRANSART
199.12BAQUET Mathieu38BEL4:10:038:21 7.20102sehDILBEEK
200.262STORMS Nicolas34BELJCPMF GENAPPE4:10:128:21 7.19103sehLOUPOIGNE
201.188LUYCKX Jacques48BELJCPMF - RAMILLI4:10:128:21 7.1962v1hPERWEZ
202.228PILLON Cyril42FRAKRAID ARDENNES4:10:168:21 7.1963v1hNEUVILLE LEZ BEAULIEU
203.35BOUREZ Philippe28BELJCPMFGENAPPE4:12:328:26 7.13104sehWAYS
204.218PAQUES Vincent38BELLES RANDONNEURS4:15:058:31 7.06105sehLE ROUX
205.202FMILIS Marie30BEL4:15:318:32 7.0414sefSOUVRET
206.50FCHARLOT Valentine42BELJCPMFFLV4:19:138:39 6.943v1fVITRIVAL
207.18BELLE Jean-Michel47BELBDV4:19:208:39 6.9464v1hBOIS-DE-VILLERS
208.296WAUTHIER Jean Pascal49FRACH’TRIO4:19:308:39 6.9465v1hTRÉLON
209.97DEWEZ Bertrand34BEL4:22:438:46 6.85106sehSCHAERBEEK
210.54CLAES Julien32BEL4:22:448:46 6.85107sehLIMAL
211.177LEDOUX Johnny42FRAKRAID ARDENNES4:25:308:51 6.7866v1hROCROI
212.25BINAME Alexandre25BELJCPMF FLV4:25:388:52 6.78108sehPROFINDEVILLE
213.236FQUINIET Hélène24BEL4:30:489:02 6.6515sefECAUSSINNES
214.237QUINIET Pierre28BEL4:30:489:02 6.65109sehLA LOUVIÈRE
215.93DESCHOENMAEKERS Kevin28BELMOTIVÉS DE METT4:34:009:08 6.57110sehROSÉE
216.55CLAES Thibaut30BEL4:35:049:11 6.54111sehBRUXELLES
217.14BEDORET Geoffrey31BEL4:37:369:16 6.48112sehCLEMRONT
218.181LELONG Quentin29BELRWSC METTET4:38:199:17 6.47113sehMETTET
219.252SEMPOT Laurent36BEL4:38:269:17 6.46114sehIXELLES
220.214NOEL Miguel27BEL4:38:339:18 6.46115seh5380
221.314STOCK Damien4:40:449:22 6.414xxx
222.313REDEMPTEUR Irazika4:40:459:22 6.415xxx
223.89DENIS Justin27BELLES RANDONNEURS4:52:459:46 6.15116sehBOUSVAL
224.1SERVAIS Laurent38BELSER'VÉLO : LES 4:52:519:46 6.15117sehFURNAUX
225.81DELBOUILLE Thierry50BEL5:04:5410:10 5.9015v2hSOIGNIES
226.302FZALM Jacqueline44NLD5:06:1510:13 5.884v1fROSSUM
227.301ZALM Hans47NLD5:06:2710:13 5.8767v1hROSSUM
228.67FDAS Laetitia40BEL5:17:5710:36 5.665v1fJAMBES
229.149FJABER Alicia32BELJCPMF GENAPPE5:18:0010:36 5.6616sefGENAPPE
230.206MOISE Patrick57BELRC NAMUR5:18:1110:37 5.6616v2hJAMBES
DSQ215OOSTERLINCK Loic29BELsehDURNAL
DNF6AIT ABDELMALECK Seddik50FRAK RAID ARDENNESv2hCHOOZ
DNF28BODART Alain55BELv2hANGLEUR
DNF103DHONT Steven38BELsehZWALM
DNF115EWBANK Geoffrey37BELBETRAILsehWALHAIN-ST-PAUL
DNF145FHUBERT Annabel46BELLES MOTIVÉS DE v1fDENEE
DNF180LELONG Manuel26FRAsehVALENCIENNES
DNF183FLEURIS Vinciane39BELsef5100
DNF231POISMANS René-Pascal25BELsehIXELLES
DNF: did not finish; DSQ: disqualified; Speed in km/h
Page: [1]